Time;durP1;ratioP1;P1;durP2;ratioP2;P2;SDS_P1;SDS_P2;PMS_P1;PMS_P2;Temp;Humidity;BMP_temperature;BMP_pressure;BME280_temperature;BME280_humidity;BME280_pressure;Samples;Min_cycle;Max_cycle;Signal;HPM_P1;HPM_P2
2022/03/16 00:02:35;;;;;;;0.00;0.00;;;;;;;20.16;26.50;102379.84;10517956;28;20376;-79
2022/03/16 00:07:37;;;;;;;0.00;0.00;;;;;;;21.45;24.33;102364.13;10514646;28;20050;-78
2022/03/16 00:12:41;;;;;;;0.22;0.22;;;;;;;21.22;24.19;102370.13;10515155;28;20052;-80
2022/03/16 00:17:42;;;;;;;0.00;0.00;;;;;;;21.58;24.15;102374.69;10551101;28;20047;-79
2022/03/16 00:22:44;;;;;;;0.08;0.08;;;;;;;21.75;23.89;102373.00;10501450;28;20040;-79
2022/03/16 00:27:48;;;;;;;0.00;0.00;;;;;;;20.97;24.68;102382.22;10533637;28;20391;-79
2022/03/16 00:32:51;;;;;;;0.00;0.00;;;;;;;21.70;24.09;102382.59;10550220;28;20483;-79
2022/03/16 00:37:55;;;;;;;0.00;0.00;;;;;;;21.46;24.00;102392.09;10517043;28;20503;-79
2022/03/16 00:42:57;;;;;;;0.00;0.00;;;;;;;21.15;24.09;102399.81;10536568;28;20051;-79
2022/03/16 00:47:59;;;;;;;0.00;0.00;;;;;;;20.18;25.21;102410.38;10492330;28;20135;-79
2022/03/16 00:53:01;;;;;;;0.00;0.00;;;;;;;20.96;24.26;102421.53;10503491;28;20075;-78
2022/03/16 00:58:03;;;;;;;0.10;0.10;;;;;;;21.38;23.24;102393.81;10539384;28;20128;-78
2022/03/16 01:03:04;;;;;;;0.10;0.10;;;;;;;20.13;24.88;102412.06;10497079;28;20043;-79
2022/03/16 01:08:06;;;;;;;2.17;1.98;;;;;;;16.76;30.87;102428.78;10509466;28;20063;-79
2022/03/16 01:13:08;;;;;;;0.28;0.28;;;;;;;15.12;33.81;102434.56;10532796;28;20044;-79
2022/03/16 01:18:09;;;;;;;0.05;0.05;;;;;;;20.94;24.32;102416.25;10546162;28;20182;-78
2022/03/16 01:23:11;;;;;;;0.00;0.00;;;;;;;21.12;23.02;102418.13;10514945;28;20050;-78
2022/03/16 01:28:13;;;;;;;0.00;0.00;;;;;;;19.12;25.34;102413.44;10497787;28;20465;-78
2022/03/16 01:33:14;;;;;;;0.00;0.00;;;;;;;18.12;27.46;102406.53;10512649;28;20172;-78
2022/03/16 01:38:16;;;;;;;0.00;0.00;;;;;;;20.57;24.23;102395.00;10511630;28;20079;-78
2022/03/16 01:43:19;;;;;;;0.00;0.00;;;;;;;20.79;23.60;102392.56;10512338;28;20036;-78
2022/03/16 01:48:21;;;;;;;0.00;0.00;;;;;;;20.01;24.82;102394.53;10496395;28;20048;-79
2022/03/16 01:53:24;;;;;;;0.00;0.00;;;;;;;19.51;25.97;102398.25;10515407;28;20147;-78
2022/03/16 01:58:26;;;;;;;0.00;0.00;;;;;;;20.06;24.73;102390.19;10512806;28;20048;-78
2022/03/16 02:03:34;;;;;;;0.00;0.00;;;;;;;19.77;24.89;102382.88;10545713;28;20059;-78
2022/03/16 02:08:36;;;;;;;0.20;0.20;;;;;;;19.27;24.54;102391.84;10497951;28;20441;-78
2022/03/16 02:13:38;;;;;;;0.30;0.13;;;;;;;19.56;25.01;102388.75;10495695;28;20042;-78
2022/03/16 02:18:39;;;;;;;0.00;0.00;;;;;;;18.13;27.06;102395.25;10508327;28;20130;-78
2022/03/16 02:23:42;;;;;;;2.17;1.98;;;;;;;19.29;25.25;102391.88;10529199;28;20040;-78
2022/03/16 02:28:44;;;;;;;0.08;0.08;;;;;;;18.39;26.03;102398.34;10522869;28;20131;-78
2022/03/16 02:33:46;;;;;;;0.00;0.00;;;;;;;18.15;27.15;102406.56;10524817;28;20043;-78
2022/03/16 02:38:47;;;;;;;0.00;0.00;;;;;;;20.16;23.71;102395.53;10509119;28;20048;-78
2022/03/16 02:43:49;;;;;;;0.00;0.00;;;;;;;19.07;25.65;102396.81;10531121;28;20040;-78
2022/03/16 02:48:51;;;;;;;0.47;0.47;;;;;;;20.38;22.83;102401.81;10525848;28;20076;-78
2022/03/16 02:53:53;;;;;;;0.00;0.00;;;;;;;20.66;22.67;102405.56;10525406;28;20072;-78
2022/03/16 02:58:55;;;;;;;0.00;0.00;;;;;;;20.13;23.46;102406.84;10504288;28;20079;-78
2022/03/16 03:03:56;;;;;;;0.57;0.57;;;;;;;19.80;23.64;102408.19;10530802;28;20111;-78
2022/03/16 03:08:58;;;;;;;2.58;2.47;;;;;;;16.78;28.05;102416.69;10499936;28;20114;-78
2022/03/16 03:14:02;;;;;;;0.00;0.00;;;;;;;15.17;31.02;102404.44;10497429;28;20526;-77
2022/03/16 03:19:04;;;;;;;0.00;0.00;;;;;;;15.82;30.57;102393.31;10507006;28;20510;-77
2022/03/16 03:24:06;;;;;;;0.00;0.00;;;;;;;15.12;31.31;102398.22;10523910;28;20127;-77
2022/03/16 03:29:08;;;;;;;0.00;0.00;;;;;;;16.26;29.71;102400.63;10526713;28;20398;-79
2022/03/16 03:34:10;;;;;;;0.00;0.00;;;;;;;16.81;29.13;102395.06;10517697;28;20040;-77
2022/03/16 03:39:12;;;;;;;0.00;0.00;;;;;;;16.41;29.48;102389.75;10505044;28;20506;-78
2022/03/16 03:44:14;;;;;;;0.00;0.00;;;;;;;15.32;30.77;102398.84;10527311;28;20044;-78
2022/03/16 03:49:16;;;;;;;0.00;0.00;;;;;;;14.77;31.41;102390.22;10519910;28;20085;-77
2022/03/16 03:54:18;;;;;;;0.00;0.00;;;;;;;16.80;28.57;102380.28;10539699;28;20081;-78
2022/03/16 03:59:20;;;;;;;0.00;0.00;;;;;;;18.30;25.48;102365.13;10535104;28;20533;-77
2022/03/16 04:04:23;;;;;;;0.00;0.00;;;;;;;18.76;24.32;102366.72;10537943;28;20080;-78
2022/03/16 04:09:25;;;;;;;0.00;0.00;;;;;;;18.17;25.92;102363.16;10493826;28;20052;-77
2022/03/16 04:14:27;;;;;;;0.00;0.00;;;;;;;18.51;25.68;102366.31;10515252;28;20125;-77
2022/03/16 04:19:29;;;;;;;0.00;0.00;;;;;;;18.84;25.40;102362.50;10532500;28;20055;-77
2022/03/16 04:24:30;;;;;;;0.00;0.00;;;;;;;19.97;24.23;102370.06;10532966;28;20119;-77
2022/03/16 04:29:33;;;;;;;4.65;2.88;;;;;;;16.34;28.61;102393.91;10523489;28;20092;-77
2022/03/16 04:34:34;;;;;;;0.20;0.20;;;;;;;18.46;26.23;102384.53;10513935;28;20111;-77
2022/03/16 04:39:36;;;;;;;0.03;0.03;;;;;;;15.91;28.71;102397.06;10517189;28;20032;-78
2022/03/16 04:44:39;;;;;;;0.00;0.00;;;;;;;15.75;28.89;102378.41;10531125;28;20483;-76
2022/03/16 04:49:40;;;;;;;0.00;0.00;;;;;;;15.55;30.10;102383.06;10546462;28;20092;-77
2022/03/16 04:54:42;;;;;;;0.10;0.10;;;;;;;18.36;25.79;102383.47;10536074;28;20067;-78
2022/03/16 04:59:43;;;;;;;0.00;0.00;;;;;;;18.30;25.51;102374.69;10531600;28;20044;-77
2022/03/16 05:04:45;;;;;;;0.85;0.85;;;;;;;19.03;24.17;102366.28;10513186;28;20078;-77
2022/03/16 05:09:46;;;;;;;0.00;0.00;;;;;;;18.65;25.34;102377.84;10527846;28;20338;-77
2022/03/16 05:14:48;;;;;;;0.10;0.10;;;;;;;18.81;25.71;102375.50;10534463;28;20036;-77
2022/03/16 05:19:51;;;;;;;0.00;0.00;;;;;;;19.45;24.78;102387.75;10535038;28;20068;-77
2022/03/16 05:24:54;;;;;;;0.00;0.00;;;;;;;19.38;24.27;102373.72;10538157;28;20620;-76
2022/03/16 05:29:57;;;;;;;29.40;10.38;;;;;;;19.58;24.56;102389.63;10513794;28;20111;-77
2022/03/16 05:34:58;;;;;;;0.00;0.00;;;;;;;19.36;25.34;102395.44;10531360;28;20440;-77
2022/03/16 05:40:01;;;;;;;0.00;0.00;;;;;;;19.65;24.09;102393.22;10548701;28;20097;-77
2022/03/16 05:45:04;;;;;;;0.00;0.00;;;;;;;18.74;25.26;102394.53;10528238;28;20055;-78
2022/03/16 05:50:08;;;;;;;0.00;0.00;;;;;;;18.81;25.65;102394.66;10512553;28;20048;-77
2022/03/16 05:55:13;;;;;;;0.00;0.00;;;;;;;19.65;25.12;102394.09;10534243;28;20032;-77
2022/03/16 06:00:15;;;;;;;0.00;0.00;;;;;;;17.75;27.42;102399.75;10523317;28;20506;-77
2022/03/16 06:05:17;;;;;;;0.00;0.00;;;;;;;17.83;27.97;102405.09;10534938;28;20040;-77
2022/03/16 06:10:20;;;;;;;2.55;1.55;;;;;;;19.08;26.85;102395.09;10544172;28;20047;-77
2022/03/16 06:15:25;;;;;;;0.00;0.00;;;;;;;17.49;29.21;102404.41;10514174;28;20051;-78
2022/03/16 06:20:30;;;;;;;0.00;0.00;;;;;;;19.50;26.64;102393.91;10532615;28;20526;-77
2022/03/16 06:25:33;;;;;;;0.10;0.10;;;;;;;20.01;26.71;102402.38;10533967;28;20036;-77
2022/03/16 06:30:36;;;;;;;0.55;0.55;;;;;;;20.33;26.85;102409.63;10534308;28;20057;-77
2022/03/16 06:35:37;;;;;;;0.00;0.00;;;;;;;20.23;27.21;102403.44;10534744;28;20040;-78
2022/03/16 06:40:39;;;;;;;0.00;0.00;;;;;;;20.38;27.83;102412.28;10516069;28;20623;-78
2022/03/16 06:45:41;;;;;;;1.42;0.52;;;;;;;20.64;28.57;102411.66;10534357;28;20032;-78
2022/03/16 06:50:42;;;;;;;0.00;0.00;;;;;;;21.29;28.12;102393.75;10515696;28;20074;-79
2022/03/16 06:55:44;;;;;;;0.00;0.00;;;;;;;21.37;27.93;102403.41;10515241;28;20056;-79
2022/03/16 07:00:46;;;;;;;0.00;0.00;;;;;;;22.31;27.22;102407.19;10516388;28;20051;-79
2022/03/16 07:05:47;;;;;;;0.00;0.00;;;;;;;21.86;29.25;102400.09;10515885;28;20043;-79
2022/03/16 07:10:49;;;;;;;0.03;0.03;;;;;;;20.83;31.22;102410.94;10518128;28;20072;-79
2022/03/16 07:15:51;;;;;;;0.00;0.00;;;;;;;22.14;30.18;102402.81;10537609;28;20039;-80
2022/03/16 07:20:52;;;;;;;0.08;0.08;;;;;;;20.65;32.08;102416.03;10526845;28;20434;-81
2022/03/16 07:25:54;;;;;;;3.10;1.52;;;;;;;20.97;32.09;102415.41;10497010;28;20115;-80
2022/03/16 07:30:55;;;;;;;1.75;1.20;;;;;;;21.99;30.87;102395.78;10512582;28;20040;-81
2022/03/16 07:35:57;;;;;;;1.08;0.98;;;;;;;20.93;32.26;102409.25;10527978;28;20070;-80
2022/03/16 07:40:59;;;;;;;0.73;0.73;;;;;;;21.53;31.14;102401.75;10520560;28;20050;-80
2022/03/16 07:46:00;;;;;;;1.98;0.90;;;;;;;22.17;30.33;102392.28;10541722;28;20459;-80
2022/03/16 07:51:02;;;;;;;3.08;1.75;;;;;;;22.31;30.51;102389.69;10539855;28;20032;-80
2022/03/16 07:56:04;;;;;;;2.38;1.17;;;;;;;22.05;29.95;102387.03;10526242;28;20426;-79
2022/03/16 08:01:06;;;;;;;2.58;2.10;;;;;;;23.01;28.48;102394.03;10524649;28;20143;-79
2022/03/16 08:06:08;;;;;;;0.57;0.52;;;;;;;23.50;28.25;102382.47;10556566;28;20390;-80
2022/03/16 08:11:09;;;;;;;0.30;0.30;;;;;;;23.51;28.04;102377.22;10543693;28;20131;-80
2022/03/16 08:16:11;;;;;;;1.75;1.65;;;;;;;23.39;28.42;102357.13;10524526;28;20070;-80
2022/03/16 08:21:25;;;;;;;2.15;1.45;;;;;;;22.80;28.71;102352.03;10500581;28;20066;-78
2022/03/16 08:26:32;;;;;;;2.83;2.03;;;;;;;21.86;29.59;102355.50;10553272;28;20051;-77
2022/03/16 08:31:34;;;;;;;2.63;1.88;;;;;;;22.89;28.03;102345.03;10507192;28;20070;-78
2022/03/16 08:36:38;;;;;;;3.08;1.67;;;;;;;23.99;26.78;102347.13;10523507;28;20144;-82
2022/03/16 08:41:40;;;;;;;1.10;1.00;;;;;;;24.56;26.68;102344.03;10517299;28;20515;-83
2022/03/16 08:46:41;;;;;;;1.42;0.98;;;;;;;23.72;26.48;102339.38;10517508;28;20048;-80
2022/03/16 08:51:43;;;;;;;0.38;0.35;;;;;;;24.45;25.60;102335.38;10535516;28;20036;-80
2022/03/16 08:56:48;;;;;;;2.45;1.02;;;;;;;24.51;25.52;102330.03;10546290;28;20436;-78
2022/03/16 09:01:51;;;;;;;5.47;1.73;;;;;;;23.55;26.07;102341.28;10553331;28;20044;-78
2022/03/16 09:06:53;;;;;;;2.47;1.45;;;;;;;23.59;26.09;102337.72;10536965;28;20077;-78
2022/03/16 09:11:55;;;;;;;0.75;0.52;;;;;;;25.15;24.42;102328.47;10536984;28;20282;-78
2022/03/16 09:16:57;;;;;;;4.07;2.17;;;;;;;22.56;26.94;102336.31;10519667;28;20078;-77
2022/03/16 09:22:00;;;;;;;1.23;0.80;;;;;;;23.93;26.17;102332.28;10537894;28;20039;-77
2022/03/16 09:27:02;;;;;;;2.10;1.33;;;;;;;23.51;26.12;102329.00;10538075;28;20036;-76
2022/03/16 09:32:09;;;;;;;9.30;1.45;;;;;;;24.85;24.63;102340.22;10535924;28;20103;-77
2022/03/16 09:37:11;;;;;;;3.33;1.42;;;;;;;24.21;25.57;102338.19;10519430;28;20036;-77
2022/03/16 09:42:12;;;;;;;5.32;2.58;;;;;;;23.17;26.01;102323.88;10536148;28;20391;-79
2022/03/16 09:47:15;;;;;;;1.70;1.25;;;;;;;23.95;24.70;102324.38;10537582;28;20399;-80
2022/03/16 09:52:17;;;;;;;0.88;0.52;;;;;;;24.73;24.57;102324.56;10530711;28;20083;-82
2022/03/16 09:57:19;;;;;;;8.43;4.60;;;;;;;23.31;26.77;102331.75;10533911;28;20395;-78
2022/03/16 10:02:21;;;;;;;5.55;2.92;;;;;;;24.43;25.58;102331.84;10520573;28;20052;-78
2022/03/16 10:07:28;;;;;;;2.38;1.17;;;;;;;25.39;24.01;102325.53;10515878;28;20058;-78
2022/03/16 10:17:59;;;;;;;;;;;;;;;24.58;24.67;102326.44;10514964;28;20082;-80
2022/03/16 10:23:01;;;;;;;;;;;;;;;26.43;23.18;102312.47;10518072;28;19923;-79
2022/03/16 10:28:17;;;;;;;1.00;0.90;;;;;;;26.46;22.35;102306.25;10517828;28;19927;-77
2022/03/16 10:33:19;;;;;;;3.80;1.40;;;;;;;25.97;23.46;102308.81;10532521;28;20131;-82
2022/03/16 10:38:21;;;;;;;6.40;4.05;;;;;;;25.58;23.23;102310.31;10533273;28;20052;-83
2022/03/16 10:48:56;;;;;;;;;;;;;;;27.00;22.99;102291.09;10515314;28;20135;-82
2022/03/16 10:54:01;;;;;;;2.47;1.65;;;;;;;27.30;21.61;102293.97;10513830;28;19928;-82
2022/03/16 10:59:03;;;;;;;4.15;1.80;;;;;;;26.21;22.64;102298.78;10530780;28;20080;-82
2022/03/16 11:04:06;;;;;;;3.20;2.65;;;;;;;26.43;22.47;102293.09;10531373;28;20052;-82
2022/03/16 11:09:09;;;;;;;2.75;1.80;;;;;;;27.24;21.63;102290.56;10518676;28;20452;-82
2022/03/16 11:14:13;;;;;;;2.60;1.33;;;;;;;26.81;22.22;102285.38;10521843;28;20105;-82
2022/03/16 11:19:17;;;;;;;3.35;1.52;;;;;;;27.26;21.66;102294.97;10554264;28;20470;-84
2022/03/16 11:24:23;;;;;;;2.40;1.75;;;;;;;27.51;21.75;102293.56;10519481;28;20457;-82
2022/03/16 11:29:39;;;;;;;2.75;1.25;;;;;;;27.73;21.85;102286.84;10540294;28;20052;-82
2022/03/16 11:34:53;;;;;;;1.35;0.90;;;;;;;28.93;20.59;102273.06;10509613;28;20487;-81
2022/03/16 11:40:05;;;;;;;4.70;2.55;;;;;;;26.48;21.79;102278.00;10529602;28;20043;-83
2022/03/16 11:45:36;;;;;;;3.60;1.92;;;;;;;27.16;21.58;102260.78;10534797;28;20051;-81
2022/03/16 11:50:37;;;;;;;7.25;4.20;;;;;;;26.92;21.09;102273.63;10505126;28;20036;-84
2022/03/16 11:55:45;;;;;;;3.97;1.90;;;;;;;28.02;21.32;102257.84;10520496;28;20029;-83
2022/03/16 12:00:48;;;;;;;0.15;0.15;;;;;;;29.18;19.89;102236.94;10519793;28;20076;-81
2022/03/16 12:06:00;;;;;;;2.35;1.23;;;;;;;28.19;21.16;102227.44;10518177;28;20450;-82
2022/03/16 12:16:22;;;;;;;;;;;;;;;29.50;20.33;102216.50;10517941;28;20048;-82
2022/03/16 12:21:30;;;;;;;1.63;1.17;;;;;;;28.24;20.96;102212.25;10513656;28;19924;-81
2022/03/16 12:26:32;;;;;;;4.45;2.67;;;;;;;28.93;20.14;102208.53;10521078;28;20174;-81
2022/03/16 12:31:35;;;;;;;2.13;1.42;;;;;;;28.27;20.55;102203.34;10531530;28;20071;-77
2022/03/16 12:36:36;;;;;;;1.73;1.13;;;;;;;27.43;21.61;102210.81;10532446;28;20105;-78
2022/03/16 12:47:26;;;;;;;2.50;1.15;;;;;;;27.40;21.39;102195.81;10540103;28;20043;-78
2022/03/16 12:52:28;;;;;;;2.60;1.38;;;;;;;28.63;20.14;102185.53;10514866;28;20076;-77
2022/03/16 12:57:30;;;;;;;4.40;2.25;;;;;;;27.77;21.72;102182.63;10537219;28;20055;-78
2022/03/16 13:02:35;;;;;;;5.18;2.50;;;;;;;28.59;20.73;102177.69;10521443;28;20087;-78
2022/03/16 13:07:38;;;;;;;1.13;0.80;;;;;;;28.28;21.27;102165.34;10519258;28;20054;-78
2022/03/16 13:12:56;;;;;;;3.03;1.40;;;;;;;29.49;19.95;102159.00;10539989;28;20048;-77
2022/03/16 13:18:00;;;;;;;0.77;0.55;;;;;;;29.28;20.47;102158.78;10534530;28;20040;-77
2022/03/16 13:23:04;;;;;;;4.25;0.85;;;;;;;28.04;20.98;102165.09;10536608;28;20044;-77
2022/03/16 13:28:07;;;;;;;0.77;0.40;;;;;;;28.34;20.72;102151.91;10535500;28;20122;-78
2022/03/16 13:33:15;;;;;;;0.00;0.00;;;;;;;30.75;19.18;102150.00;10542415;28;20498;-78
2022/03/16 13:38:30;;;;;;;2.47;1.88;;;;;;;29.01;20.44;102145.47;10517079;28;20048;-77
2022/03/16 13:43:32;;;;;;;2.42;0.82;;;;;;;29.14;20.10;102145.94;10534682;28;20483;-77
2022/03/16 13:48:38;;;;;;;1.35;0.70;;;;;;;29.11;19.56;102130.16;10528062;28;20072;-77
2022/03/16 13:53:47;;;;;;;0.93;0.50;;;;;;;29.13;19.51;102126.53;10515164;28;20058;-77
2022/03/16 13:58:53;;;;;;;1.13;0.68;;;;;;;29.18;19.42;102125.50;10534948;28;20047;-77
2022/03/16 14:04:08;;;;;;;0.88;0.68;;;;;;;29.78;19.36;102106.66;10516725;28;20055;-77
2022/03/16 14:09:18;;;;;;;1.55;0.63;;;;;;;29.50;18.98;102107.63;10515794;28;20067;-77
2022/03/16 14:14:20;;;;;;;2.75;1.88;;;;;;;27.60;20.42;102116.84;10514681;28;20040;-77
2022/03/16 14:19:30;;;;;;;1.75;1.55;;;;;;;29.92;18.59;102093.75;10533169;28;20035;-78
2022/03/16 14:24:33;;;;;;;;;;;;;;;30.13;18.94;102099.19;10517955;28;20100;-78
2022/03/16 14:30:35;;;;;;;62.55;25.48;;;;;;;27.30;20.82;102088.50;10544466;28;20442;-78
2022/03/16 14:35:39;;;;;;;59.30;24.05;;;;;;;28.04;20.16;102069.72;10532502;28;20530;-78
2022/03/16 14:40:43;;;;;;;2.97;2.05;;;;;;;28.79;19.27;102063.97;10535341;28;20507;-77
2022/03/16 14:45:45;;;;;;;4.75;2.58;;;;;;;28.46;19.49;102064.09;10533113;28;20036;-78
2022/03/16 14:50:54;;;;;;;4.07;2.90;;;;;;;28.83;19.41;102047.97;10514749;28;20048;-80
2022/03/16 14:55:57;;;;;;;6.15;3.92;;;;;;;28.17;20.11;102042.03;10504579;28;20123;-80
2022/03/16 15:00:58;;;;;;;0.10;0.10;;;;;;;29.20;19.08;102025.47;10517472;28;20077;-78
2022/03/16 15:06:01;;;;;;;0.77;0.50;;;;;;;29.34;18.83;102023.22;10508576;28;20037;-76
2022/03/16 15:11:02;;;;;;;0.45;0.35;;;;;;;30.18;18.14;102028.13;10524022;28;20048;-76
2022/03/16 15:16:04;;;;;;;0.85;0.52;;;;;;;29.11;19.38;102006.31;10529291;28;20044;-76
2022/03/16 15:21:10;;;;;;;2.53;1.20;;;;;;;28.42;19.77;102001.50;10542403;28;20056;-77
2022/03/16 15:26:12;;;;;;;0.00;0.00;;;;;;;28.77;19.45;101986.25;10530737;28;20469;-76
2022/03/16 15:31:14;;;;;;;1.05;0.68;;;;;;;27.78;20.66;101984.00;10526391;28;20051;-75
2022/03/16 15:36:16;;;;;;;3.70;1.50;;;;;;;27.20;20.78;101982.06;10527096;28;20123;-75
2022/03/16 15:46:41;;;;;;;1.08;0.75;;;;;;;28.14;20.08;101959.97;10526261;28;20119;-75
2022/03/16 15:51:54;;;;;;;2.30;1.30;;;;;;;28.14;20.28;101959.97;10536191;28;20078;-76
2022/03/16 15:56:56;;;;;;;1.20;1.00;;;;;;;28.62;20.11;101945.16;10535648;28;20075;-76
2022/03/16 16:01:57;;;;;;;2.08;1.25;;;;;;;27.70;20.74;101948.94;10497544;28;20066;-75
2022/03/16 16:06:59;;;;;;;0.65;0.47;;;;;;;28.98;19.50;101949.31;10517299;28;20137;-78
2022/03/16 16:12:04;;;;;;;0.00;0.00;;;;;;;27.75;20.79;101954.09;10538100;28;20121;-75
2022/03/16 16:17:06;;;;;;;1.67;1.10;;;;;;;27.89;20.53;101973.06;10545878;28;20080;-77
2022/03/16 16:22:08;;;;;;;3.60;2.05;;;;;;;27.18;20.99;101970.66;10531978;28;20044;-76
2022/03/16 16:27:11;;;;;;;1.73;1.05;;;;;;;27.21;20.80;101946.75;10534985;28;20111;-77
2022/03/16 16:32:13;;;;;;;0.85;0.82;;;;;;;28.24;20.11;101931.41;10534063;28;20119;-76
2022/03/16 16:37:16;;;;;;;0.00;0.00;;;;;;;29.10;19.05;101956.81;10524976;28;20123;-78
2022/03/16 16:47:41;;;;;;;10.75;5.07;;;;;;;26.18;22.17;101997.72;10530418;28;20126;-78
2022/03/16 16:52:43;;;;;;;2.03;1.20;;;;;;;27.90;20.47;101984.53;10516380;28;20524;-78
2022/03/16 16:57:45;;;;;;;0.45;0.28;;;;;;;27.51;20.73;101981.25;10512815;28;20038;-78
2022/03/16 17:02:50;;;;;;;1.35;1.25;;;;;;;28.27;20.21;101994.91;10530685;28;20046;-78
2022/03/16 17:07:52;;;;;;;0.00;0.00;;;;;;;29.15;19.38;101992.94;10533452;28;20046;-79
2022/03/16 17:12:55;;;;;;;0.88;0.38;;;;;;;28.56;19.96;101979.00;10516114;28;20123;-78
2022/03/16 17:17:58;;;;;;;0.30;0.28;;;;;;;28.31;20.27;101951.47;10513829;28;20190;-77
2022/03/16 17:23:05;;;;;;;0.10;0.10;;;;;;;28.16;20.10;101974.06;10532377;28;20122;-78
2022/03/16 17:28:13;;;;;;;1.00;0.32;;;;;;;29.42;19.37;101960.13;10530685;28;20044;-77
2022/03/16 17:33:19;;;;;;;1.85;1.45;;;;;;;28.72;19.52;101956.34;10514227;28;20085;-78
2022/03/16 17:38:22;;;;;;;0.30;0.28;;;;;;;28.07;20.50;101958.44;10515626;28;20123;-76
2022/03/16 17:48:45;;;;;;;1.42;1.15;;;;;;;26.91;21.68;101956.38;10550839;27;20125;-77
2022/03/16 17:53:46;;;;;;;13.18;8.02;;;;;;;24.97;24.44;101971.03;10529931;28;20582;-77
2022/03/16 17:58:50;;;;;;;27.23;14.40;;;;;;;24.79;24.05;101979.25;10508368;28;20032;-79
2022/03/16 18:03:51;;;;;;;1.02;0.93;;;;;;;26.16;22.57;101964.34;10511672;28;20044;-79
2022/03/16 18:08:54;;;;;;;2.03;1.35;;;;;;;26.19;22.37;101966.91;10530153;28;20135;-78
2022/03/16 18:13:55;;;;;;;0.68;0.30;;;;;;;26.89;21.83;101943.19;10545003;28;20051;-78
2022/03/16 18:19:00;;;;;;;1.65;1.13;;;;;;;25.32;23.05;101939.63;10530618;28;20414;-77
2022/03/16 18:24:01;;;;;;;0.00;0.00;;;;;;;26.95;21.79;101933.38;10527025;28;20125;-80
2022/03/16 18:29:04;;;;;;;0.52;0.30;;;;;;;26.67;21.91;101928.78;10525665;28;20040;-78
2022/03/16 18:34:06;;;;;;;0.22;0.22;;;;;;;26.35;22.02;101917.22;10523113;28;20475;-79
2022/03/16 18:39:08;;;;;;;0.20;0.20;;;;;;;26.16;22.30;101912.41;10513502;28;20402;-76
2022/03/16 18:44:09;;;;;;;1.98;1.48;;;;;;;25.39;23.29;101903.50;10529086;28;20675;-79
2022/03/16 18:49:11;;;;;;;4.13;0.77;;;;;;;25.32;23.40;101898.31;10530290;28;20123;-77
2022/03/16 18:54:13;;;;;;;1.15;0.88;;;;;;;25.29;23.31;101906.28;10513590;28;20040;-78
2022/03/16 18:59:14;;;;;;;3.33;1.70;;;;;;;24.67;24.03;101894.25;10511979;28;20143;-77
2022/03/16 19:04:18;;;;;;;0.47;0.30;;;;;;;26.38;22.46;101886.31;10533958;28;20048;-75
2022/03/16 19:09:22;;;;;;;0.10;0.10;;;;;;;26.11;22.80;101887.84;10524581;28;20044;-77
2022/03/16 19:14:24;;;;;;;0.00;0.00;;;;;;;25.58;23.41;101894.28;10508702;28;20052;-78
2022/03/16 19:19:25;;;;;;;1.55;0.85;;;;;;;26.18;22.52;101892.06;10515769;28;20048;-78
2022/03/16 19:24:27;;;;;;;15.55;14.23;;;;;;;26.20;22.45;101894.72;10513916;28;20048;-76
2022/03/16 19:29:29;;;;;;;3.00;1.27;;;;;;;25.83;23.06;101906.94;10534539;28;20491;-78
2022/03/16 19:34:30;;;;;;;0.52;0.35;;;;;;;26.06;22.87;101900.28;10515675;28;20548;-76
2022/03/16 19:39:33;;;;;;;0.25;0.25;;;;;;;26.53;22.43;101900.03;10524736;28;20036;-77
2022/03/16 19:44:35;;;;;;;0.52;0.52;;;;;;;26.76;22.16;101903.00;10552730;28;20048;-77
2022/03/16 19:49:36;;;;;;;0.10;0.10;;;;;;;26.85;22.00;101917.72;10535151;28;20487;-76
2022/03/16 19:54:39;;;;;;;0.25;0.20;;;;;;;26.23;22.96;101924.56;10538943;28;20418;-78
2022/03/16 19:59:41;;;;;;;2.50;1.35;;;;;;;25.81;23.44;101928.09;10533423;28;20421;-78
2022/03/16 20:04:42;;;;;;;0.32;0.32;;;;;;;25.35;24.06;101929.88;10534779;28;20126;-78
2022/03/16 20:09:44;;;;;;;5.18;2.30;;;;;;;25.82;23.70;101923.69;10528832;28;20414;-78
2022/03/16 20:14:47;;;;;;;0.43;0.30;;;;;;;26.26;23.37;101924.47;10524578;28;20135;-78
2022/03/16 20:19:49;;;;;;;0.55;0.17;;;;;;;26.38;23.56;101925.94;10536959;28;20443;-79
2022/03/16 20:24:51;;;;;;;0.50;0.25;;;;;;;25.95;23.47;101925.13;10523818;28;20080;-78
2022/03/16 20:29:52;;;;;;;0.13;0.13;;;;;;;26.63;23.09;101906.84;10535945;28;20071;-78
2022/03/16 20:34:55;;;;;;;1.25;0.77;;;;;;;25.47;23.96;101914.75;10536626;28;20097;-77
2022/03/16 20:39:57;;;;;;;1.38;1.05;;;;;;;25.35;23.96;101918.47;10534365;28;20040;-76
2022/03/16 20:44:59;;;;;;;2.10;1.08;;;;;;;25.64;24.11;101919.66;10533650;28;20139;-76
2022/03/16 20:50:01;;;;;;;0.57;0.38;;;;;;;26.46;23.43;101917.84;10519842;28;20135;-77
2022/03/16 20:55:07;;;;;;;1.38;0.45;;;;;;;26.48;23.47;101907.22;10520052;28;20463;-78
2022/03/16 21:05:30;;;;;;;1.25;1.05;;;;;;;25.29;24.47;101914.19;10537281;28;20495;-77
2022/03/16 21:10:32;;;;;;;0.93;0.73;;;;;;;25.74;24.23;101909.78;10536247;28;20058;-77
2022/03/16 21:15:34;;;;;;;0.77;0.70;;;;;;;25.51;24.96;101908.50;10535968;28;20131;-76
2022/03/16 21:20:36;;;;;;;0.52;0.25;;;;;;;26.58;23.34;101904.31;10525665;28;20502;-77
2022/03/16 21:25:39;;;;;;;0.00;0.00;;;;;;;25.96;24.11;101903.13;10536213;28;20571;-78
2022/03/16 21:30:43;;;;;;;0.77;0.32;;;;;;;26.64;23.32;101903.28;10536066;28;20139;-77
2022/03/16 21:35:45;;;;;;;0.00;0.00;;;;;;;27.01;22.44;101912.03;10536409;28;20131;-78
2022/03/16 21:46:06;;;;;;;0.10;0.10;;;;;;;27.02;22.71;101908.50;10534252;28;20039;-77
2022/03/16 21:56:15;;;;;;;4.38;2.17;;;;;;;25.40;24.30;101915.78;10535547;28;20040;-78
2022/03/16 22:01:17;;;;;;;0.30;0.20;;;;;;;26.46;23.52;101909.91;10516594;28;20144;-78
2022/03/16 22:06:20;;;;;;;1.30;1.05;;;;;;;25.97;23.83;101901.38;10523051;28;20059;-78
2022/03/16 22:11:21;;;;;;;0.55;0.55;;;;;;;25.95;23.77;101892.59;10534906;28;20032;-78
2022/03/16 22:16:24;;;;;;;0.17;0.17;;;;;;;26.32;23.54;101890.91;10517038;28;20147;-78
2022/03/16 22:21:28;;;;;;;0.20;0.20;;;;;;;26.47;23.60;101885.25;10534042;28;20048;-77
2022/03/16 22:26:31;;;;;;;0.00;0.00;;;;;;;26.15;23.79;101889.53;10558170;27;20072;-78
2022/03/16 22:31:33;;;;;;;1.45;1.35;;;;;;;26.02;23.93;101883.63;10528989;28;20050;-78
2022/03/16 22:36:34;;;;;;;2.47;0.93;;;;;;;25.20;24.86;101888.00;10527049;28;20469;-77
2022/03/16 22:41:36;;;;;;;0.30;0.15;;;;;;;26.04;23.70;101883.59;10525876;28;20044;-78
2022/03/16 22:46:39;;;;;;;7.22;3.95;;;;;;;24.40;26.22;101879.75;10510005;28;20043;-79
2022/03/16 22:51:41;;;;;;;3.53;2.03;;;;;;;25.83;24.31;101887.59;10518790;28;20044;-79
2022/03/16 22:56:42;;;;;;;3.92;2.45;;;;;;;24.75;26.12;101885.34;10527921;28;20151;-78
2022/03/16 23:01:44;;;;;;;0.47;0.47;;;;;;;25.70;24.96;101871.19;10497374;28;20451;-79
2022/03/16 23:06:45;;;;;;;10.40;5.30;;;;;;;24.77;26.70;101876.50;10540869;28;20574;-79
2022/03/16 23:11:47;;;;;;;0.20;0.20;;;;;;;25.15;25.89;101874.91;10543554;28;20067;-80
2022/03/16 23:16:57;;;;;;;17.45;8.88;;;;;;;24.00;27.28;101881.25;10548744;28;20123;-78
2022/03/16 23:21:59;;;;;;;6.55;3.25;;;;;;;24.39;26.66;101873.59;10518791;28;20071;-78
2022/03/16 23:27:00;;;;;;;20.70;10.93;;;;;;;24.13;27.07;101875.78;10543019;28;20039;-78
2022/03/16 23:32:07;;;;;;;20.83;13.07;;;;;;;23.48;28.02;101877.53;10524909;28;20040;-77
2022/03/16 23:37:09;;;;;;;11.13;6.22;;;;;;;24.36;26.70;101857.88;10524571;28;20433;-79
2022/03/16 23:42:13;;;;;;;15.10;8.88;;;;;;;24.35;27.44;101865.81;10525152;28;20044;-77
2022/03/16 23:47:15;;;;;;;14.40;8.63;;;;;;;23.36;28.15;101861.91;10525611;28;20135;-77
2022/03/16 23:52:17;;;;;;;21.70;15.65;;;;;;;22.64;29.32;101861.78;10550060;28;20092;-79
2022/03/16 23:57:19;;;;;;;9.60;5.22;;;;;;;24.70;26.47;101851.19;10530347;28;20534;-79
